Time;durP1;ratioP1;P1;durP2;ratioP2;P2;SDS_P1;SDS_P2;PMS_P1;PMS_P2;Temp;Humidity;BMP_temperature;BMP_pressure;BME280_temperature;BME280_humidity;BME280_pressure;Samples;Min_cycle;Max_cycle;Signal;HPM_P1;HPM_P2
2022/05/08 00:00:42;;;;;;;7.03;4.60;;;15.20;99.90;;;;;;5046571;28;20376;-82
2022/05/08 00:03:07;;;;;;;6.32;4.45;;;15.00;99.90;;;;;;5044235;28;20727;-81
2022/05/08 00:05:33;;;;;;;5.47;4.60;;;14.80;99.90;;;;;;5041727;28;20852;-81
2022/05/08 00:07:59;;;;;;;4.82;4.43;;;14.60;99.90;;;;;;5042555;28;20379;-82
2022/05/08 00:10:25;;;;;;;7.87;5.10;;;14.50;99.90;;;;;;5042867;28;20728;-82
2022/05/08 00:12:50;;;;;;;5.83;4.70;;;14.20;99.90;;;;;;5042490;28;20420;-80
2022/05/08 00:15:16;;;;;;;5.65;4.93;;;14.10;99.90;;;;;;5039158;28;20406;-79
2022/05/08 00:17:44;;;;;;;5.28;4.75;;;14.00;99.90;;;;;;5017902;28;20938;-80
2022/05/08 00:20:10;;;;;;;6.43;4.55;;;13.80;99.90;;;;;;5025279;28;20805;-79
2022/05/08 00:22:41;;;;;;;6.53;4.80;;;13.60;99.90;;;;;;5048913;28;20433;-80
2022/05/08 00:25:07;;;;;;;7.78;5.10;;;13.60;99.90;;;;;;5050615;28;20389;-81
2022/05/08 00:27:33;;;;;;;5.78;4.88;;;13.40;99.90;;;;;;5050551;28;20384;-80
2022/05/08 00:29:58;;;;;;;5.77;5.13;;;13.20;99.90;;;;;;5034146;28;20415;-80
2022/05/08 00:32:24;;;;;;;5.72;5.18;;;13.20;99.90;;;;;;5032594;28;20391;-81
2022/05/08 00:34:50;;;;;;;5.17;4.30;;;13.20;99.90;;;;;;5050898;28;20453;-82
2022/05/08 00:37:15;;;;;;;6.93;4.70;;;13.20;99.90;;;;;;5032475;28;20403;-82
2022/05/08 00:39:43;;;;;;;8.87;5.33;;;13.10;99.90;;;;;;5050098;28;20865;-82
2022/05/08 00:42:09;;;;;;;5.82;4.75;;;13.00;99.90;;;;;;5050978;28;20375;-82
2022/05/08 00:44:35;;;;;;;5.40;4.90;;;13.00;99.90;;;;;;5051525;28;20395;-82
2022/05/08 00:47:03;;;;;;;6.72;5.20;;;13.00;99.90;;;;;;5052072;28;20730;-81
2022/05/08 00:49:29;;;;;;;5.75;4.97;;;12.90;99.90;;;;;;5034290;28;20387;-80
2022/05/08 00:51:55;;;;;;;8.17;5.57;;;13.10;99.90;;;;;;5051973;28;20390;-79
2022/05/08 00:54:21;;;;;;;6.47;5.63;;;13.10;99.90;;;;;;5033100;28;20388;-80
2022/05/08 00:56:47;;;;;;;7.88;5.75;;;13.00;99.90;;;;;;5035376;28;20391;-79
2022/05/08 00:59:13;;;;;;;6.25;5.00;;;13.00;99.90;;;;;;5054828;28;20491;-81
2022/05/08 01:01:39;;;;;;;7.50;4.97;;;12.90;99.90;;;;;;5037128;28;20466;-81
2022/05/08 01:04:04;;;;;;;6.70;4.93;;;12.80;99.90;;;;;;5053892;28;20418;-80
2022/05/08 01:06:32;;;;;;;6.17;4.70;;;12.80;99.90;;;;;;5053777;28;20396;-80
2022/05/08 01:08:58;;;;;;;6.13;4.60;;;12.70;99.90;;;;;;5036631;28;20772;-82
2022/05/08 01:11:24;;;;;;;6.45;4.53;;;12.60;99.90;;;;;;5036406;28;20403;-81
2022/05/08 01:13:50;;;;;;;4.72;4.32;;;12.60;99.90;;;;;;5053640;28;20669;-80
2022/05/08 01:16:21;;;;;;;6.25;4.80;;;12.50;99.90;;;;;;5053994;28;20722;-83
2022/05/08 01:18:48;;;;;;;5.80;4.93;;;12.60;99.90;;;;;;5053538;28;20441;-82
2022/05/08 01:21:16;;;;;;;6.35;5.10;;;12.50;99.90;;;;;;5053448;28;20457;-81
2022/05/08 01:23:42;;;;;;;5.82;5.03;;;12.50;99.90;;;;;;5053151;28;20384;-81
2022/05/08 01:26:11;;;;;;;6.65;4.75;;;12.50;99.90;;;;;;5035274;28;20825;-84
2022/05/08 01:28:37;;;;;;;7.65;5.25;;;12.60;99.90;;;;;;5054516;28;20376;-81
2022/05/08 01:31:02;;;;;;;5.68;5.07;;;12.70;99.90;;;;;;5053771;28;20469;-83
2022/05/08 01:33:30;;;;;;;6.03;5.15;;;12.60;99.90;;;;;;5034619;28;20400;-83
2022/05/08 01:35:58;;;;;;;6.18;5.45;;;12.70;99.90;;;;;;5034557;28;20392;-83
2022/05/08 01:38:24;;;;;;;5.70;5.07;;;12.70;99.90;;;;;;5052660;28;20392;-84
2022/05/08 01:40:54;;;;;;;6.03;5.43;;;12.80;99.90;;;;;;5052446;28;20375;-84
2022/05/08 01:43:20;;;;;;;5.90;5.30;;;12.80;99.90;;;;;;5052485;28;20460;-83
2022/05/08 01:45:47;;;;;;;5.28;4.80;;;12.90;99.90;;;;;;5052175;28;20528;-83
2022/05/08 01:48:22;;;;;;;5.60;5.10;;;12.80;99.90;;;;;;5034577;28;20738;-83
2022/05/08 01:50:55;;;;;;;6.05;4.82;;;12.90;99.90;;;;;;5034141;28;20901;-82
2022/05/08 01:53:22;;;;;;;5.40;4.93;;;13.00;99.90;;;;;;5047139;28;20394;-82
2022/05/08 01:55:52;;;;;;;5.75;5.05;;;12.90;99.90;;;;;;5034208;28;20388;-82
2022/05/08 01:58:18;;;;;;;6.13;5.53;;;12.80;99.90;;;;;;5033831;28;20449;-82
2022/05/08 02:00:44;;;;;;;6.25;5.50;;;12.80;99.90;;;;;;5051849;28;20430;-83
2022/05/08 02:03:12;;;;;;;6.05;5.45;;;12.80;99.90;;;;;;5033663;28;20414;-82
2022/05/08 02:05:41;;;;;;;8.05;5.97;;;12.80;99.90;;;;;;5034027;28;20375;-82
2022/05/08 02:08:07;;;;;;;6.20;5.55;;;12.70;99.90;;;;;;5051875;28;20830;-84
2022/05/08 02:10:33;;;;;;;6.53;5.78;;;12.70;99.90;;;;;;5051983;28;20368;-83
2022/05/08 02:12:58;;;;;;;6.40;5.87;;;12.60;99.90;;;;;;5033692;28;20372;-83
2022/05/08 02:15:29;;;;;;;7.10;6.10;;;12.70;99.90;;;;;;5051641;28;20415;-82
2022/05/08 02:17:59;;;;;;;7.63;6.87;;;12.80;99.90;;;;;;5033944;28;20479;-81
2022/05/08 02:20:24;;;;;;;8.27;7.53;;;13.00;99.90;;;;;;5051255;28;20371;-81
2022/05/08 02:22:51;;;;;;;7.82;7.20;;;12.90;99.90;;;;;;5032737;28;20455;-81
2022/05/08 02:25:18;;;;;;;7.68;6.90;;;12.90;99.90;;;;;;5051265;28;20364;-85
2022/05/08 02:27:49;;;;;;;8.25;7.55;;;12.80;99.90;;;;;;5033317;28;20912;-82
2022/05/08 02:30:16;;;;;;;9.13;8.23;;;12.80;99.90;;;;;;5033061;28;20741;-81
2022/05/08 02:32:42;;;;;;;9.02;8.15;;;12.70;99.90;;;;;;5033026;28;20375;-83
2022/05/08 02:35:09;;;;;;;9.63;8.73;;;12.90;99.90;;;;;;5051039;28;20884;-82
2022/05/08 02:37:36;;;;;;;9.27;8.40;;;13.00;99.90;;;;;;5050823;28;20359;-83
2022/05/08 02:40:02;;;;;;;9.80;8.52;;;12.90;99.90;;;;;;5050953;28;20399;-82
2022/05/08 02:42:27;;;;;;;10.43;9.48;;;12.80;99.90;;;;;;5033189;28;20371;-82
2022/05/08 02:44:53;;;;;;;10.50;9.40;;;12.70;99.90;;;;;;5051851;28;20745;-82
2022/05/08 02:47:19;;;;;;;9.47;8.53;;;12.50;99.90;;;;;;5051043;28;20387;-83
2022/05/08 02:49:45;;;;;;;9.53;8.63;;;12.50;99.90;;;;;;5032983;28;20472;-83
2022/05/08 02:52:11;;;;;;;8.13;7.32;;;12.50;99.90;;;;;;5051324;28;20541;-83
2022/05/08 02:54:36;;;;;;;7.55;6.85;;;12.40;99.90;;;;;;5032849;28;20379;-82
2022/05/08 02:59:46;;;;;;;6.95;6.30;;;12.40;99.90;;;;;;5050663;28;20403;-82
2022/05/08 03:02:12;;;;;;;7.73;7.03;;;12.30;99.90;;;;;;5033567;28;20380;-82
2022/05/08 03:04:38;;;;;;;7.40;6.55;;;12.20;99.90;;;;;;5050699;28;20374;-84
2022/05/08 03:07:04;;;;;;;7.07;6.38;;;12.20;99.90;;;;;;5032698;28;20392;-83
2022/05/08 03:09:29;;;;;;;9.05;6.43;;;12.30;99.90;;;;;;5032422;28;20478;-81
2022/05/08 03:11:55;;;;;;;8.07;6.50;;;12.20;99.90;;;;;;5050104;28;20379;-81
2022/05/08 03:14:21;;;;;;;6.60;5.90;;;12.20;99.90;;;;;;5050656;28;20376;-80
2022/05/08 03:16:47;;;;;;;7.17;6.07;;;12.30;99.90;;;;;;5032659;28;20397;-82
2022/05/08 03:19:13;;;;;;;7.70;6.68;;;12.30;99.90;;;;;;5031955;28;20965;-84
2022/05/08 03:21:40;;;;;;;7.72;6.57;;;12.20;99.90;;;;;;5050024;28;20388;-84
2022/05/08 03:24:07;;;;;;;7.30;6.50;;;12.30;99.90;;;;;;5050342;28;20368;-83
2022/05/08 03:26:33;;;;;;;8.10;6.15;;;12.30;99.90;;;;;;5050372;28;20387;-83
2022/05/08 03:28:59;;;;;;;6.90;5.40;;;12.30;99.90;;;;;;5050626;28;20368;-84
2022/05/08 03:31:24;;;;;;;6.97;5.47;;;12.40;99.90;;;;;;5032583;28;20394;-82
2022/05/08 03:33:50;;;;;;;10.20;6.00;;;12.20;99.90;;;;;;5050007;28;20937;-83
2022/05/08 03:36:15;;;;;;;8.63;5.30;;;12.00;99.90;;;;;;5032739;28;20446;-83
2022/05/08 03:38:42;;;;;;;6.80;5.00;;;12.00;99.90;;;;;;5049867;28;20762;-82
2022/05/08 03:41:08;;;;;;;8.95;5.10;;;11.90;99.90;;;;;;5050021;28;20746;-82
2022/05/08 03:43:34;;;;;;;8.07;4.93;;;11.90;99.90;;;;;;5049587;28;20380;-83
2022/05/08 03:46:00;;;;;;;9.02;5.22;;;11.90;99.90;;;;;;5049812;28;20406;-80
2022/05/08 03:48:26;;;;;;;11.05;4.70;;;11.80;99.90;;;;;;5032169;28;20746;-81
2022/05/08 03:50:51;;;;;;;10.55;4.93;;;11.90;99.90;;;;;;5050200;28;20376;-82
2022/05/08 03:53:17;;;;;;;10.00;5.07;;;11.80;99.90;;;;;;5031382;28;20411;-83
2022/05/08 03:55:43;;;;;;;9.57;4.68;;;11.70;99.90;;;;;;5031944;28;20391;-84
2022/05/08 03:58:08;;;;;;;9.15;5.10;;;11.60;99.90;;;;;;5031898;28;20372;-80
2022/05/08 04:00:34;;;;;;;9.97;5.00;;;11.60;99.90;;;;;;5049841;28;20436;-81
2022/05/08 04:03:01;;;;;;;9.00;5.25;;;11.60;99.90;;;;;;5049475;28;20376;-80
2022/05/08 04:05:26;;;;;;;8.87;5.00;;;11.60;99.90;;;;;;5032034;28;20424;-81
2022/05/08 04:07:52;;;;;;;9.40;5.10;;;11.60;99.90;;;;;;5049600;28;20383;-80
2022/05/08 04:10:18;;;;;;;7.77;4.87;;;11.70;99.90;;;;;;5049726;28;20929;-81
2022/05/08 04:12:43;;;;;;;8.70;5.18;;;11.90;99.90;;;;;;5049693;28;20383;-80
2022/05/08 04:17:54;;;;;;;9.50;4.80;;;12.10;99.90;;;;;;5049821;28;20479;-83
2022/05/08 04:20:20;;;;;;;11.20;4.57;;;12.20;99.90;;;;;;5049743;28;20474;-83
2022/05/08 04:25:30;;;;;;;7.93;4.20;;;12.40;99.90;;;;;;5049607;28;20429;-80
2022/05/08 04:27:56;;;;;;;13.38;4.65;;;12.30;99.90;;;;;;5049805;28;20454;-80
2022/05/08 04:30:21;;;;;;;10.73;4.40;;;12.20;99.90;;;;;;5031624;28;20474;-83
2022/05/08 04:32:47;;;;;;;12.40;4.13;;;12.00;99.90;;;;;;5052701;28;20417;-82
2022/05/08 04:35:12;;;;;;;8.93;4.20;;;11.90;99.90;;;;;;5035548;28;20501;-81
2022/05/08 04:37:38;;;;;;;11.93;5.03;;;11.90;99.90;;;;;;5053652;28;20371;-81
2022/05/08 04:40:06;;;;;;;14.03;4.30;;;12.00;99.90;;;;;;5053543;28;20920;-80
2022/05/08 04:42:31;;;;;;;12.23;4.90;;;12.00;99.90;;;;;;5035775;28;20387;-84
2022/05/08 04:44:59;;;;;;;15.33;5.33;;;11.90;99.90;;;;;;5053170;28;20372;-81
2022/05/08 04:47:25;;;;;;;14.27;4.70;;;12.00;99.90;;;;;;5035118;28;20392;-81
2022/05/08 04:49:51;;;;;;;14.60;5.25;;;12.00;99.90;;;;;;5035170;28;20371;-81
2022/05/08 04:52:17;;;;;;;10.60;4.10;;;12.00;99.90;;;;;;5035198;28;20384;-81
2022/05/08 04:54:42;;;;;;;12.98;4.95;;;12.10;99.90;;;;;;5052892;28;20423;-82
2022/05/08 04:57:08;;;;;;;10.03;4.10;;;12.30;99.90;;;;;;5053114;28;20379;-84
2022/05/08 04:59:34;;;;;;;9.80;4.47;;;12.40;99.90;;;;;;5052915;28;20833;-83
2022/05/08 05:01:59;;;;;;;11.80;4.77;;;12.60;99.90;;;;;;5053100;28;20928;-84
2022/05/08 05:04:25;;;;;;;10.85;4.40;;;12.80;99.90;;;;;;5034550;28;20372;-84
2022/05/08 05:06:51;;;;;;;12.40;4.55;;;12.90;99.90;;;;;;5052608;28;20383;-82
2022/05/08 05:09:16;;;;;;;13.55;4.90;;;12.80;99.90;;;;;;5052889;28;20372;-82
2022/05/08 05:11:42;;;;;;;12.20;4.40;;;12.80;99.90;;;;;;5052868;28;20416;-80
2022/05/08 05:14:08;;;;;;;10.93;4.35;;;12.70;99.90;;;;;;5052385;28;20372;-82
2022/05/08 05:16:34;;;;;;;11.95;4.38;;;12.80;99.90;;;;;;5034717;28;20395;-81
2022/05/08 05:19:00;;;;;;;15.00;4.82;;;12.70;99.90;;;;;;5034629;28;20391;-82
2022/05/08 05:21:25;;;;;;;12.90;5.47;;;12.60;99.90;;;;;;5052729;28;20372;-82
2022/05/08 05:23:51;;;;;;;11.93;4.28;;;12.40;99.90;;;;;;5052802;28;20376;-83
2022/05/08 05:26:16;;;;;;;14.20;4.80;;;12.40;99.90;;;;;;5052498;28;20394;-84
2022/05/08 05:28:44;;;;;;;13.03;4.43;;;12.30;99.90;;;;;;5053846;28;20433;-85
2022/05/08 05:31:12;;;;;;;14.30;4.65;;;12.20;99.90;;;;;;5034766;28;20391;-83
2022/05/08 05:33:38;;;;;;;13.50;4.70;;;12.10;99.90;;;;;;5052080;28;20413;-84
2022/05/08 05:36:04;;;;;;;15.38;4.72;;;12.00;99.90;;;;;;5052312;28;20375;-81
2022/05/08 05:38:30;;;;;;;13.88;4.60;;;12.00;99.90;;;;;;5052684;28;20962;-84
2022/05/08 05:40:55;;;;;;;11.93;4.60;;;12.00;99.90;;;;;;5053054;28;20388;-85
2022/05/08 05:43:21;;;;;;;14.45;4.43;;;12.10;99.90;;;;;;5034354;28;20734;-84
2022/05/08 05:47:49;;;;;;;10.43;4.57;;;12.00;99.90;;;;;;5052871;28;20375;-85
2022/05/08 05:48:35;;;;;;;10.75;4.57;;;12.10;99.90;;;;;;5053684;28;20376;-85
2022/05/08 05:51:01;;;;;;;13.00;4.67;;;12.00;99.90;;;;;;5053925;28;20853;-84
2022/05/08 05:53:26;;;;;;;16.23;4.97;;;12.10;99.90;;;;;;5035912;28;20877;-83
2022/05/08 05:55:54;;;;;;;12.93;4.70;;;12.00;99.90;;;;;;5053361;28;20922;-82
2022/05/08 05:58:19;;;;;;;12.30;4.72;;;11.80;99.90;;;;;;5056502;28;20372;-81
2022/05/08 06:00:45;;;;;;;12.60;4.40;;;11.80;99.90;;;;;;5056907;28;20379;-84
2022/05/08 06:03:10;;;;;;;18.13;4.57;;;11.90;99.90;;;;;;5037409;28;20390;-84
2022/05/08 06:05:36;;;;;;;13.00;4.60;;;12.00;99.90;;;;;;5057776;28;20379;-85
2022/05/08 06:08:01;;;;;;;15.93;5.50;;;12.10;99.90;;;;;;5054994;28;20372;-85
2022/05/08 06:10:27;;;;;;;19.95;5.10;;;12.30;99.90;;;;;;5056307;28;20385;-82
2022/05/08 06:12:52;;;;;;;16.77;5.07;;;12.40;99.90;;;;;;5058709;28;20395;-85
2022/05/08 06:15:18;;;;;;;14.55;5.00;;;12.60;99.90;;;;;;5041953;28;20439;-85
2022/05/08 06:17:44;;;;;;;14.57;4.70;;;12.90;99.90;;;;;;5061901;28;20434;-83
2022/05/08 06:20:10;;;;;;;11.70;4.15;;;12.90;99.90;;;;;;5058050;28;20483;-84
2022/05/08 06:22:36;;;;;;;14.47;4.37;;;13.10;99.90;;;;;;5061550;28;20825;-84
2022/05/08 06:25:03;;;;;;;13.57;4.32;;;13.30;99.90;;;;;;5059927;28;20399;-85
2022/05/08 06:27:28;;;;;;;13.63;4.40;;;13.50;99.90;;;;;;5031051;28;20385;-84
2022/05/08 06:29:54;;;;;;;14.53;4.67;;;13.50;99.90;;;;;;5048030;28;20373;-82
2022/05/08 06:32:22;;;;;;;15.10;4.65;;;13.60;99.90;;;;;;5051730;28;20380;-82
2022/05/08 06:34:47;;;;;;;15.15;5.05;;;13.50;99.90;;;;;;5031452;28;20418;-84
2022/05/08 06:37:13;;;;;;;14.73;4.53;;;13.40;99.90;;;;;;5031306;28;20402;-85
2022/05/08 06:39:39;;;;;;;16.95;4.70;;;13.40;99.90;;;;;;5048551;28;20397;-83
2022/05/08 06:42:06;;;;;;;13.93;4.68;;;13.30;99.90;;;;;;5053038;28;20375;-84
2022/05/08 06:44:32;;;;;;;13.17;4.93;;;13.20;99.90;;;;;;5052808;28;20380;-83
2022/05/08 06:46:58;;;;;;;14.47;5.10;;;13.50;99.90;;;;;;5050993;28;20445;-81
2022/05/08 06:49:24;;;;;;;12.25;4.40;;;13.70;99.90;;;;;;5032741;28;20388;-85
2022/05/08 06:51:56;;;;;;;12.93;4.67;;;13.90;99.90;;;;;;5034645;28;20423;-82
2022/05/08 06:54:21;;;;;;;13.30;4.75;;;14.30;99.90;;;;;;5039517;28;20383;-82
2022/05/08 06:56:47;;;;;;;12.30;4.22;;;14.70;99.90;;;;;;5043833;28;20376;-82
2022/05/08 07:02:16;;;;;;;14.93;5.35;;;15.30;99.90;;;;;;5055959;28;20359;-82
2022/05/08 07:04:42;;;;;;;12.35;4.47;;;15.60;99.90;;;;;;5043855;28;20387;-85
2022/05/08 07:07:08;;;;;;;18.57;4.93;;;16.00;99.90;;;;;;5059365;28;21182;-84
2022/05/08 07:09:36;;;;;;;14.43;4.65;;;16.20;99.90;;;;;;5040578;28;20475;-83
2022/05/08 07:12:02;;;;;;;13.10;4.18;;;16.50;99.90;;;;;;5059299;28;20453;-83
2022/05/08 07:15:10;;;;;;;16.10;4.40;;;16.60;99.90;;;;;;5040404;28;20372;-83
2022/05/08 07:17:35;;;;;;;13.02;5.03;;;16.60;99.90;;;;;;5039823;28;20394;-82
2022/05/08 07:20:05;;;;;;;13.30;4.57;;;16.60;99.90;;;;;;5037729;28;20388;-81
2022/05/08 07:22:43;;;;;;;13.00;5.03;;;16.50;99.90;;;;;;5036145;28;20739;-82
2022/05/08 07:25:11;;;;;;;15.02;4.65;;;16.20;99.90;;;;;;5055224;28;20368;-83
2022/05/08 07:27:40;;;;;;;16.52;4.85;;;16.00;99.90;;;;;;5032873;28;20445;-82
2022/05/08 07:30:20;;;;;;;10.43;4.15;;;16.10;99.90;;;;;;5052626;28;20403;-84
2022/05/08 07:32:48;;;;;;;13.95;4.40;;;16.40;99.90;;;;;;5036524;28;20723;-83
2022/05/08 07:38:06;;;;;;;16.42;5.03;;;16.50;99.90;;;;;;5053216;28;20374;-83
2022/05/08 07:40:34;;;;;;;13.15;4.13;;;16.60;99.90;;;;;;5036156;28;20431;-84
2022/05/08 07:43:01;;;;;;;15.63;4.43;;;16.60;99.90;;;;;;5054346;28;20396;-83
2022/05/08 07:45:30;;;;;;;14.93;4.43;;;16.40;99.90;;;;;;5036029;28;20400;-82
2022/05/08 07:48:41;;;;;;;15.35;4.95;;;16.30;99.90;;;;;;5034714;28;20391;-82
2022/05/08 07:51:05;;;;;;;15.02;4.82;;;16.60;99.90;;;;;;5052736;28;20375;-82
2022/05/08 07:53:42;;;;;;;14.23;4.60;;;16.90;99.90;;;;;;5054148;28;20421;-83
2022/05/08 07:56:08;;;;;;;15.00;4.60;;;17.20;99.90;;;;;;5037266;28;20471;-83
2022/05/08 07:58:33;;;;;;;15.63;5.17;;;17.50;99.90;;;;;;5053845;28;20972;-82
2022/05/08 08:01:00;;;;;;;12.13;4.20;;;17.90;99.90;;;;;;5034868;28;20472;-82
2022/05/08 08:03:34;;;;;;;14.90;5.25;;;18.00;99.90;;;;;;5055409;28;20513;-84
2022/05/08 08:06:01;;;;;;;10.57;4.38;;;18.10;99.90;;;;;;5057439;28;20430;-83
2022/05/08 08:08:30;;;;;;;11.75;3.92;;;17.70;99.90;;;;;;5039763;28;20994;-83
2022/05/08 08:10:59;;;;;;;9.88;3.70;;;17.80;99.90;;;;;;5040769;28;20368;-81
2022/05/08 08:13:29;;;;;;;13.70;4.03;;;17.80;99.90;;;;;;5058806;28;20548;-82
2022/05/08 08:15:55;;;;;;;15.50;4.05;;;17.70;99.90;;;;;;5040612;28;20406;-83
2022/05/08 08:18:23;;;;;;;11.10;4.10;;;17.60;99.90;;;;;;5056649;28;20427;-84
2022/05/08 08:20:49;;;;;;;13.52;3.92;;;17.50;99.90;;;;;;5039887;28;20386;-83
2022/05/08 08:23:14;;;;;;;11.30;4.15;;;17.50;99.90;;;;;;5058803;28;20379;-82
2022/05/08 08:25:44;;;;;;;15.20;4.50;;;17.30;99.90;;;;;;5058982;28;20484;-84
2022/05/08 08:28:13;;;;;;;12.40;4.10;;;17.20;99.90;;;;;;5057974;28;20372;-83
2022/05/08 08:30:39;;;;;;;9.50;3.58;;;17.30;99.90;;;;;;5058793;28;20443;-81
2022/05/08 08:33:05;;;;;;;11.48;4.00;;;17.40;99.90;;;;;;5059569;28;20368;-84
2022/05/08 08:35:31;;;;;;;11.07;3.77;;;17.60;99.90;;;;;;5041486;28;20406;-81
2022/05/08 08:37:56;;;;;;;14.55;4.88;;;17.80;99.90;;;;;;5057929;28;20364;-83
2022/05/08 08:40:22;;;;;;;12.68;4.10;;;17.90;99.90;;;;;;5057172;28;20501;-81
2022/05/08 08:42:49;;;;;;;10.63;3.97;;;18.20;99.90;;;;;;5041835;28;20455;-84
2022/05/08 08:48:09;;;;;;;12.27;4.03;;;18.10;99.90;;;;;;5057122;28;20379;-84
2022/05/08 08:50:35;;;;;;;13.98;4.32;;;17.60;99.90;;;;;;5038338;28;20423;-83
2022/05/08 08:53:04;;;;;;;11.68;4.25;;;17.80;99.90;;;;;;5041773;28;20797;-82
2022/05/08 08:55:31;;;;;;;14.95;4.68;;;17.60;99.90;;;;;;5039121;28;20837;-83
2022/05/08 08:57:56;;;;;;;12.00;4.10;;;17.40;99.90;;;;;;5039473;28;20384;-82
2022/05/08 09:00:23;;;;;;;10.18;4.03;;;17.40;99.90;;;;;;5056284;28;20490;-82
2022/05/08 09:02:50;;;;;;;14.00;4.68;;;17.40;99.90;;;;;;5058163;28;20826;-84
2022/05/08 09:05:16;;;;;;;10.82;3.60;;;17.70;99.90;;;;;;5057953;28;20372;-81
2022/05/08 09:07:44;;;;;;;8.77;3.70;;;17.80;99.90;;;;;;5056391;28;20443;-81
2022/05/08 09:10:11;;;;;;;11.18;3.90;;;17.90;98.50;;;;;;5038887;28;20419;-83
2022/05/08 09:12:38;;;;;;;9.48;3.28;;;17.50;97.90;;;;;;5030758;28;20604;-85
2022/05/08 09:15:29;;;;;;;9.63;3.47;;;17.40;99.40;;;;;;5045723;28;20387;-85
2022/05/08 09:18:00;;;;;;;12.30;3.03;;;17.60;99.90;;;;;;5045021;28;20385;-84
2022/05/08 09:20:41;;;;;;;8.27;3.23;;;17.80;96.20;;;;;;5045965;28;20447;-85
2022/05/08 09:23:11;;;;;;;9.33;3.93;;;17.70;97.30;;;;;;5044862;28;20408;-82
2022/05/08 09:26:02;;;;;;;10.05;3.53;;;17.60;99.90;;;;;;5046732;28;20388;-84
2022/05/08 09:28:43;;;;;;;9.23;3.20;;;17.70;96.70;;;;;;5044120;28;20373;-82
2022/05/08 09:31:11;;;;;;;10.90;3.90;;;18.00;97.60;;;;;;5043105;28;20389;-82
2022/05/08 09:33:41;;;;;;;10.13;4.00;;;18.30;99.20;;;;;;5044393;28;20359;-84
2022/05/08 09:36:08;;;;;;;7.20;3.13;;;17.90;95.10;;;;;;5028227;28;20388;-84
2022/05/08 09:38:58;;;;;;;9.13;3.50;;;17.70;93.40;;;;;;5044848;28;20415;-82
2022/05/08 09:41:31;;;;;;;10.55;3.22;;;17.60;96.70;;;;;;5046880;28;20386;-82
2022/05/08 09:44:14;;;;;;;11.30;3.58;;;17.70;94.20;;;;;;5027112;28;20385;-82
2022/05/08 09:46:49;;;;;;;7.45;2.83;;;17.70;95.00;;;;;;5046404;28;20365;-84
2022/05/08 09:49:22;;;;;;;7.22;2.85;;;17.90;95.70;;;;;;5028515;28;20416;-83
2022/05/08 09:51:49;;;;;;;9.95;3.50;;;18.40;92.30;;;;;;5026883;28;20377;-82
2022/05/08 09:54:17;;;;;;;10.90;3.33;;;18.40;94.60;;;;;;5027646;28;20901;-83
2022/05/08 09:56:44;;;;;;;11.10;3.58;;;18.40;92.40;;;;;;5011139;28;20385;-83
2022/05/08 09:59:12;;;;;;;11.30;3.50;;;18.00;93.30;;;;;;5027481;28;20814;-85
2022/05/08 10:01:38;;;;;;;9.07;3.40;;;18.30;93.80;;;;;;5026048;28;20384;-82
2022/05/08 10:04:04;;;;;;;8.82;3.03;;;18.30;94.10;;;;;;5043439;28;20369;-85
2022/05/08 10:06:32;;;;;;;7.53;3.00;;;18.20;97.20;;;;;;5042043;28;20420;-83
2022/05/08 10:14:30;;;;;;;13.40;5.05;;;18.80;92.50;;;;;;5045207;28;20476;-84
2022/05/08 10:17:05;;;;;;;13.40;4.30;;;18.40;95.10;;;;;;5044160;28;20426;-85
2022/05/08 10:19:30;;;;;;;9.35;3.60;;;17.80;95.40;;;;;;5044454;28;20762;-84
2022/05/08 10:22:03;;;;;;;11.40;3.60;;;17.60;96.60;;;;;;5025488;28;20381;-83
2022/05/08 10:24:34;;;;;;;10.80;4.10;;;17.90;96.00;;;;;;5025145;28;20953;-86
2022/05/08 10:27:37;;;;;;;9.50;3.70;;;18.00;98.20;;;;;;5025321;28;20569;-85
2022/05/08 10:30:03;;;;;;;14.73;6.63;;;17.70;95.90;;;;;;5039116;28;20396;-85
2022/05/08 10:32:32;;;;;;;8.70;3.30;;;17.30;96.00;;;;;;5024903;28;20462;-84
2022/05/08 10:35:12;;;;;;;12.65;3.85;;;17.60;95.80;;;;;;5042646;28;20387;-84
2022/05/08 10:37:42;;;;;;;13.70;3.93;;;17.80;94.50;;;;;;5039932;28;20401;-85
2022/05/08 10:40:23;;;;;;;17.20;9.23;;;17.60;94.20;;;;;;5026915;28;20404;-83
2022/05/08 10:42:55;;;;;;;10.35;3.67;;;17.70;95.30;;;;;;5042243;28;20383;-86
2022/05/08 10:45:33;;;;;;;11.07;3.63;;;17.60;93.80;;;;;;5027528;28;20465;-86
2022/05/08 10:48:08;;;;;;;9.13;3.63;;;17.80;96.00;;;;;;5022219;28;20483;-86
2022/05/08 10:50:37;;;;;;;7.13;3.23;;;18.00;93.90;;;;;;5028076;28;20379;-85
2022/05/08 10:53:04;;;;;;;9.65;2.85;;;17.90;92.20;;;;;;5044602;28;20901;-86
2022/05/08 10:55:30;;;;;;;11.30;3.70;;;17.60;92.70;;;;;;5025181;28;20938;-86
2022/05/08 10:57:56;;;;;;;14.07;6.10;;;17.70;92.50;;;;;;5042522;28;20366;-85
2022/05/08 11:00:22;;;;;;;11.00;3.63;;;17.90;91.80;;;;;;5025135;28;21105;-84
2022/05/08 11:02:51;;;;;;;8.23;3.53;;;;;;;;;;5024994;28;20403;-86
2022/05/08 11:05:36;;;;;;;11.90;3.97;;;21.30;90.50;;;;;;5027586;28;20376;-83
2022/05/08 11:08:06;;;;;;;8.32;2.92;;;;;;;;;;5019214;28;20401;-81
2022/05/08 11:10:37;;;;;;;7.73;2.90;;;;;;;;;;5023581;28;20418;-85
2022/05/08 11:13:06;;;;;;;8.38;3.00;;;18.00;99.90;;;;;;5023424;28;20441;-86
2022/05/08 11:15:48;;;;;;;7.07;2.78;;;18.00;89.20;;;;;;5021999;28;20394;-88
2022/05/08 11:18:23;;;;;;;8.45;2.90;;;17.70;90.10;;;;;;5044728;28;20476;-86
2022/05/08 11:20:52;;;;;;;7.63;3.00;;;17.70;90.10;;;;;;5032890;28;20392;-85
2022/05/08 11:23:21;;;;;;;8.52;3.20;;;17.90;87.40;;;;;;5020267;28;20413;-85
2022/05/08 11:25:52;;;;;;;9.50;3.20;;;18.00;82.00;;;;;;5016875;28;20811;-85
2022/05/08 11:28:20;;;;;;;4.90;2.50;;;18.00;83.00;;;;;;5049912;28;20388;-84
2022/05/08 11:30:49;;;;;;;5.60;2.60;;;;;;;;;;5023469;28;20772;-85
2022/05/08 11:36:04;;;;;;;7.53;2.60;;;;;;;;;;5041871;28;20377;-84
2022/05/08 11:38:33;;;;;;;7.85;3.72;;;;;;;;;;5038874;28;20407;-84
2022/05/08 11:41:01;;;;;;;8.07;4.32;;;17.80;93.10;;;;;;5040850;28;20982;-85
2022/05/08 11:43:42;;;;;;;5.85;2.50;;;17.90;99.00;;;;;;5039090;28;20384;-84
2022/05/08 11:46:09;;;;;;;5.40;2.30;;;18.10;99.20;;;;;;5018930;28;20443;-85
2022/05/08 11:48:40;;;;;;;6.88;2.38;;;;;;;;;;5037184;28;20403;-83
2022/05/08 11:51:11;;;;;;;4.93;2.20;;;;;;;;;;5038336;28;20732;-84
2022/05/08 11:53:43;;;;;;;5.15;2.30;;;;;;;;;;5018911;28;20744;-83
2022/05/08 11:56:24;;;;;;;5.82;2.60;;;18.10;72.20;;;;;;5021211;28;20382;-83
2022/05/08 11:59:17;;;;;;;4.53;2.28;;;18.20;70.90;;;;;;5040744;28;20400;-84
2022/05/08 12:01:52;;;;;;;4.47;2.40;;;18.30;67.20;;;;;;5014152;28;20397;-86
2022/05/08 12:04:27;;;;;;;4.22;2.00;;;18.10;55.20;;;;;;5044942;28;20380;-85
2022/05/08 12:07:05;;;;;;;5.18;2.10;;;18.10;60.30;;;;;;5042334;28;20380;-84
2022/05/08 12:09:44;;;;;;;5.38;2.25;;;18.20;60.20;;;;;;5039294;28;20404;-87
2022/05/08 12:12:23;;;;;;;4.95;2.17;;;18.00;61.40;;;;;;5055823;28;20385;-85
2022/05/08 12:15:22;;;;;;;6.35;2.20;;;17.90;63.30;;;;;;5040300;28;20420;-83
2022/05/08 12:17:49;;;;;;;5.03;2.22;;;18.20;59.60;;;;;;5064656;28;20471;-84
2022/05/08 12:20:35;;;;;;;4.82;2.00;;;18.30;60.60;;;;;;5044899;28;20393;-87
2022/05/08 12:23:08;;;;;;;4.20;1.90;;;18.20;61.60;;;;;;5060502;28;20395;-84
2022/05/08 12:25:38;;;;;;;4.43;1.90;;;18.20;60.90;;;;;;5043344;28;20417;-83
2022/05/08 12:28:07;;;;;;;7.68;2.55;;;18.40;57.80;;;;;;5044330;28;20439;-85
2022/05/08 12:30:34;;;;;;;4.50;2.10;;;18.40;58.60;;;;;;5040215;28;20590;-85
2022/05/08 12:32:59;;;;;;;4.88;1.60;;;18.40;60.10;;;;;;5041957;28;20360;-85
2022/05/08 12:35:25;;;;;;;3.67;1.85;;;18.30;60.20;;;;;;5023657;28;20454;-85
2022/05/08 12:37:51;;;;;;;5.47;1.97;;;18.00;55.80;;;;;;5043449;28;20392;-83
2022/05/08 12:40:17;;;;;;;5.93;1.98;;;18.20;61.60;;;;;;5022144;28;20396;-83
2022/05/08 12:42:44;;;;;;;6.63;2.10;;;18.50;60.40;;;;;;5020549;28;20378;-85
2022/05/08 12:45:13;;;;;;;3.75;2.10;;;18.60;62.80;;;;;;5038030;28;20384;-84
2022/05/08 12:47:39;;;;;;;5.60;2.08;;;18.70;59.00;;;;;;5040996;28;20513;-83
2022/05/08 12:50:05;;;;;;;4.00;1.90;;;18.50;60.90;;;;;;5039027;28;20455;-85
2022/05/08 12:52:31;;;;;;;2.92;1.80;;;18.60;64.80;;;;;;5041528;28;20726;-87
2022/05/08 12:54:57;;;;;;;5.68;2.20;;;18.70;59.90;;;;;;5043949;28;20383;-84
2022/05/08 13:00:08;;;;;;;6.65;2.33;;;18.40;61.80;;;;;;5044044;28;20837;-82
2022/05/08 13:02:34;;;;;;;4.32;2.10;;;18.60;63.00;;;;;;5026197;28;20930;-85
2022/05/08 13:05:00;;;;;;;4.70;2.17;;;18.80;63.50;;;;;;5026027;28;20930;-85
2022/05/08 13:07:25;;;;;;;3.83;2.00;;;18.70;59.70;;;;;;5044007;28;20366;-84
2022/05/08 13:09:51;;;;;;;6.18;1.95;;;18.80;58.40;;;;;;5044433;28;20770;-84
2022/05/08 13:12:17;;;;;;;3.85;2.28;;;18.90;63.20;;;;;;5050294;28;20397;-86
2022/05/08 13:14:43;;;;;;;4.37;2.23;;;18.90;55.90;;;;;;5034876;28;20772;-85
2022/05/08 13:17:08;;;;;;;6.72;2.25;;;18.90;59.00;;;;;;5023311;28;20403;-83
2022/05/08 13:19:34;;;;;;;3.57;2.13;;;18.90;58.50;;;;;;5023193;28;20412;-83